sensor_id;sensor_type;location;lat;lon;timestamp;P1;durP1;ratioP1;P2;durP2;ratioP2
19260;SDS011;9764;48.114;11.670;2023-03-11T00:00:25;0.40;;;0.40;;
19260;SDS011;9764;48.114;11.670;2023-03-11T00:02:57;0.40;;;0.40;;
19260;SDS011;9764;48.114;11.670;2023-03-11T00:05:27;0.43;;;0.43;;
19260;SDS011;9764;48.114;11.670;2023-03-11T00:07:56;0.40;;;0.40;;
19260;SDS011;9764;48.114;11.670;2023-03-11T00:10:26;0.40;;;0.40;;
19260;SDS011;9764;48.114;11.670;2023-03-11T00:12:56;0.38;;;0.38;;
19260;SDS011;9764;48.114;11.670;2023-03-11T00:15:26;0.40;;;0.40;;
19260;SDS011;9764;48.114;11.670;2023-03-11T00:17:56;0.50;;;0.50;;
19260;SDS011;9764;48.114;11.670;2023-03-11T00:20:25;0.30;;;0.30;;
19260;SDS011;9764;48.114;11.670;2023-03-11T00:22:55;0.38;;;0.38;;
19260;SDS011;9764;48.114;11.670;2023-03-11T00:25:24;0.30;;;0.30;;
19260;SDS011;9764;48.114;11.670;2023-03-11T00:27:55;0.40;;;0.40;;
19260;SDS011;9764;48.114;11.670;2023-03-11T00:30:23;0.30;;;0.30;;
19260;SDS011;9764;48.114;11.670;2023-03-11T00:32:55;0.30;;;0.30;;
19260;SDS011;9764;48.114;11.670;2023-03-11T00:35:25;0.30;;;0.30;;
19260;SDS011;9764;48.114;11.670;2023-03-11T00:37:55;0.40;;;0.40;;
19260;SDS011;9764;48.114;11.670;2023-03-11T00:40:25;0.30;;;0.30;;
19260;SDS011;9764;48.114;11.670;2023-03-11T00:42:56;0.80;;;0.30;;
19260;SDS011;9764;48.114;11.670;2023-03-11T00:45:26;0.40;;;0.40;;
19260;SDS011;9764;48.114;11.670;2023-03-11T00:47:55;0.40;;;0.40;;
19260;SDS011;9764;48.114;11.670;2023-03-11T00:50:25;0.40;;;0.40;;
19260;SDS011;9764;48.114;11.670;2023-03-11T00:52:55;0.30;;;0.30;;
19260;SDS011;9764;48.114;11.670;2023-03-11T00:55:25;0.68;;;0.50;;
19260;SDS011;9764;48.114;11.670;2023-03-11T00:57:56;0.88;;;0.40;;
19260;SDS011;9764;48.114;11.670;2023-03-11T01:00:33;0.40;;;0.40;;
19260;SDS011;9764;48.114;11.670;2023-03-11T01:03:01;0.43;;;0.40;;
19260;SDS011;9764;48.114;11.670;2023-03-11T01:05:31;0.35;;;0.35;;
19260;SDS011;9764;48.114;11.670;2023-03-11T01:08:01;0.30;;;0.30;;
19260;SDS011;9764;48.114;11.670;2023-03-11T01:10:30;0.38;;;0.38;;
19260;SDS011;9764;48.114;11.670;2023-03-11T01:12:59;0.30;;;0.30;;
19260;SDS011;9764;48.114;11.670;2023-03-11T01:15:29;0.40;;;0.40;;
19260;SDS011;9764;48.114;11.670;2023-03-11T01:18:00;0.55;;;0.55;;
19260;SDS011;9764;48.114;11.670;2023-03-11T01:20:31;0.40;;;0.40;;
19260;SDS011;9764;48.114;11.670;2023-03-11T01:23:00;0.30;;;0.30;;
19260;SDS011;9764;48.114;11.670;2023-03-11T01:25:28;0.30;;;0.30;;
19260;SDS011;9764;48.114;11.670;2023-03-11T01:27:56;0.38;;;0.38;;
19260;SDS011;9764;48.114;11.670;2023-03-11T01:30:25;0.50;;;0.50;;
19260;SDS011;9764;48.114;11.670;2023-03-11T01:32:56;0.75;;;0.30;;
19260;SDS011;9764;48.114;11.670;2023-03-11T01:35:25;0.40;;;0.40;;
19260;SDS011;9764;48.114;11.670;2023-03-11T01:37:55;0.40;;;0.40;;
19260;SDS011;9764;48.114;11.670;2023-03-11T01:40:26;0.25;;;0.25;;
19260;SDS011;9764;48.114;11.670;2023-03-11T01:43:01;0.73;;;0.50;;
19260;SDS011;9764;48.114;11.670;2023-03-11T01:45:40;0.40;;;0.40;;
19260;SDS011;9764;48.114;11.670;2023-03-11T01:48:38;0.40;;;0.40;;
19260;SDS011;9764;48.114;11.670;2023-03-11T01:51:07;0.40;;;0.40;;
19260;SDS011;9764;48.114;11.670;2023-03-11T01:53:36;0.50;;;0.40;;
19260;SDS011;9764;48.114;11.670;2023-03-11T01:56:04;0.32;;;0.30;;
19260;SDS011;9764;48.114;11.670;2023-03-11T01:58:34;0.30;;;0.30;;
19260;SDS011;9764;48.114;11.670;2023-03-11T02:01:06;0.30;;;0.30;;
19260;SDS011;9764;48.114;11.670;2023-03-11T02:03:36;0.75;;;0.47;;
19260;SDS011;9764;48.114;11.670;2023-03-11T02:06:07;0.40;;;0.40;;
19260;SDS011;9764;48.114;11.670;2023-03-11T02:08:37;0.40;;;0.40;;
19260;SDS011;9764;48.114;11.670;2023-03-11T02:11:10;0.30;;;0.30;;
19260;SDS011;9764;48.114;11.670;2023-03-11T02:13:42;0.32;;;0.32;;
19260;SDS011;9764;48.114;11.670;2023-03-11T02:16:12;0.30;;;0.30;;
19260;SDS011;9764;48.114;11.670;2023-03-11T02:18:43;0.40;;;0.40;;
19260;SDS011;9764;48.114;11.670;2023-03-11T02:21:17;0.30;;;0.30;;
19260;SDS011;9764;48.114;11.670;2023-03-11T02:23:55;0.30;;;0.30;;
19260;SDS011;9764;48.114;11.670;2023-03-11T02:26:30;0.40;;;0.40;;
19260;SDS011;9764;48.114;11.670;2023-03-11T02:29:04;0.38;;;0.38;;
19260;SDS011;9764;48.114;11.670;2023-03-11T02:31:36;0.47;;;0.47;;
19260;SDS011;9764;48.114;11.670;2023-03-11T02:37:36;0.40;;;0.40;;
19260;SDS011;9764;48.114;11.670;2023-03-11T02:43:04;0.30;;;0.30;;
19260;SDS011;9764;48.114;11.670;2023-03-11T02:45:35;0.38;;;0.38;;
19260;SDS011;9764;48.114;11.670;2023-03-11T02:48:07;0.40;;;0.40;;
19260;SDS011;9764;48.114;11.670;2023-03-11T02:50:37;0.40;;;0.40;;
19260;SDS011;9764;48.114;11.670;2023-03-11T02:53:07;0.30;;;0.30;;
19260;SDS011;9764;48.114;11.670;2023-03-11T02:55:35;0.40;;;0.40;;
19260;SDS011;9764;48.114;11.670;2023-03-11T02:58:05;0.50;;;0.30;;
19260;SDS011;9764;48.114;11.670;2023-03-11T03:00:33;0.30;;;0.30;;
19260;SDS011;9764;48.114;11.670;2023-03-11T03:03:06;2.05;;;0.30;;
19260;SDS011;9764;48.114;11.670;2023-03-11T03:05:37;0.20;;;0.20;;
19260;SDS011;9764;48.114;11.670;2023-03-11T03:08:05;0.30;;;0.30;;
19260;SDS011;9764;48.114;11.670;2023-03-11T03:10:33;0.30;;;0.30;;
19260;SDS011;9764;48.114;11.670;2023-03-11T03:13:02;0.30;;;0.30;;
19260;SDS011;9764;48.114;11.670;2023-03-11T03:15:30;0.40;;;0.40;;
19260;SDS011;9764;48.114;11.670;2023-03-11T03:18:00;0.40;;;0.40;;
19260;SDS011;9764;48.114;11.670;2023-03-11T03:20:28;0.32;;;0.32;;
19260;SDS011;9764;48.114;11.670;2023-03-11T03:22:59;0.30;;;0.30;;
19260;SDS011;9764;48.114;11.670;2023-03-11T03:25:30;0.40;;;0.40;;
19260;SDS011;9764;48.114;11.670;2023-03-11T03:28:02;0.40;;;0.40;;
19260;SDS011;9764;48.114;11.670;2023-03-11T03:30:34;0.40;;;0.40;;
19260;SDS011;9764;48.114;11.670;2023-03-11T03:33:04;0.40;;;0.40;;
19260;SDS011;9764;48.114;11.670;2023-03-11T03:35:33;0.40;;;0.40;;
19260;SDS011;9764;48.114;11.670;2023-03-11T03:38:08;0.30;;;0.30;;
19260;SDS011;9764;48.114;11.670;2023-03-11T03:40:37;0.40;;;0.40;;
19260;SDS011;9764;48.114;11.670;2023-03-11T03:43:12;0.30;;;0.30;;
19260;SDS011;9764;48.114;11.670;2023-03-11T03:45:43;0.30;;;0.30;;
19260;SDS011;9764;48.114;11.670;2023-03-11T03:48:13;0.32;;;0.32;;
19260;SDS011;9764;48.114;11.670;2023-03-11T03:50:44;1.25;;;0.40;;
19260;SDS011;9764;48.114;11.670;2023-03-11T03:53:15;0.40;;;0.40;;
19260;SDS011;9764;48.114;11.670;2023-03-11T03:55:44;0.30;;;0.30;;
19260;SDS011;9764;48.114;11.670;2023-03-11T03:58:12;0.38;;;0.38;;
19260;SDS011;9764;48.114;11.670;2023-03-11T04:00:42;0.38;;;0.38;;
19260;SDS011;9764;48.114;11.670;2023-03-11T04:03:10;0.55;;;0.32;;
19260;SDS011;9764;48.114;11.670;2023-03-11T04:05:47;0.30;;;0.30;;
19260;SDS011;9764;48.114;11.670;2023-03-11T04:08:15;0.50;;;0.50;;
19260;SDS011;9764;48.114;11.670;2023-03-11T04:10:44;0.35;;;0.35;;
19260;SDS011;9764;48.114;11.670;2023-03-11T04:13:25;0.40;;;0.40;;
19260;SDS011;9764;48.114;11.670;2023-03-11T04:15:53;2.40;;;0.40;;
19260;SDS011;9764;48.114;11.670;2023-03-11T04:18:23;0.40;;;0.40;;
19260;SDS011;9764;48.114;11.670;2023-03-11T04:20:52;0.45;;;0.40;;
19260;SDS011;9764;48.114;11.670;2023-03-11T04:23:21;0.43;;;0.40;;
19260;SDS011;9764;48.114;11.670;2023-03-11T04:25:49;0.63;;;0.40;;
19260;SDS011;9764;48.114;11.670;2023-03-11T04:28:18;0.95;;;0.40;;
19260;SDS011;9764;48.114;11.670;2023-03-11T04:30:47;0.40;;;0.40;;
19260;SDS011;9764;48.114;11.670;2023-03-11T04:33:16;0.50;;;0.50;;
19260;SDS011;9764;48.114;11.670;2023-03-11T04:35:46;0.50;;;0.50;;
19260;SDS011;9764;48.114;11.670;2023-03-11T04:38:16;0.40;;;0.40;;
19260;SDS011;9764;48.114;11.670;2023-03-11T04:40:45;2.20;;;0.88;;
19260;SDS011;9764;48.114;11.670;2023-03-11T04:43:14;0.40;;;0.40;;
19260;SDS011;9764;48.114;11.670;2023-03-11T04:45:43;0.40;;;0.40;;
19260;SDS011;9764;48.114;11.670;2023-03-11T04:48:12;1.63;;;0.50;;
19260;SDS011;9764;48.114;11.670;2023-03-11T04:50:40;0.40;;;0.40;;
19260;SDS011;9764;48.114;11.670;2023-03-11T04:53:10;0.40;;;0.40;;
19260;SDS011;9764;48.114;11.670;2023-03-11T04:55:39;1.05;;;0.47;;
19260;SDS011;9764;48.114;11.670;2023-03-11T04:58:07;0.45;;;0.45;;
19260;SDS011;9764;48.114;11.670;2023-03-11T05:00:37;0.50;;;0.40;;
19260;SDS011;9764;48.114;11.670;2023-03-11T05:03:09;0.40;;;0.40;;
19260;SDS011;9764;48.114;11.670;2023-03-11T05:05:38;0.40;;;0.40;;
19260;SDS011;9764;48.114;11.670;2023-03-11T05:08:07;0.30;;;0.30;;
19260;SDS011;9764;48.114;11.670;2023-03-11T05:10:38;0.40;;;0.40;;
19260;SDS011;9764;48.114;11.670;2023-03-11T05:13:08;0.40;;;0.40;;
19260;SDS011;9764;48.114;11.670;2023-03-11T05:15:39;0.30;;;0.30;;
19260;SDS011;9764;48.114;11.670;2023-03-11T05:18:09;0.40;;;0.40;;
19260;SDS011;9764;48.114;11.670;2023-03-11T05:20:37;1.13;;;0.40;;
19260;SDS011;9764;48.114;11.670;2023-03-11T05:23:07;0.57;;;0.50;;
19260;SDS011;9764;48.114;11.670;2023-03-11T05:25:37;1.90;;;0.50;;
19260;SDS011;9764;48.114;11.670;2023-03-11T05:28:06;1.55;;;0.50;;
19260;SDS011;9764;48.114;11.670;2023-03-11T05:30:40;1.40;;;0.32;;
19260;SDS011;9764;48.114;11.670;2023-03-11T05:33:09;0.65;;;0.47;;
19260;SDS011;9764;48.114;11.670;2023-03-11T05:35:37;0.70;;;0.40;;
19260;SDS011;9764;48.114;11.670;2023-03-11T05:38:06;1.45;;;0.50;;
19260;SDS011;9764;48.114;11.670;2023-03-11T05:40:34;0.70;;;0.50;;
19260;SDS011;9764;48.114;11.670;2023-03-11T05:43:04;0.40;;;0.40;;
19260;SDS011;9764;48.114;11.670;2023-03-11T05:45:36;3.65;;;0.60;;
19260;SDS011;9764;48.114;11.670;2023-03-11T05:48:05;1.38;;;0.82;;
19260;SDS011;9764;48.114;11.670;2023-03-11T05:50:36;0.63;;;0.40;;
19260;SDS011;9764;48.114;11.670;2023-03-11T05:53:05;0.77;;;0.52;;
19260;SDS011;9764;48.114;11.670;2023-03-11T05:55:34;2.33;;;0.70;;
19260;SDS011;9764;48.114;11.670;2023-03-11T05:58:04;0.40;;;0.40;;
19260;SDS011;9764;48.114;11.670;2023-03-11T06:00:32;0.60;;;0.60;;
19260;SDS011;9764;48.114;11.670;2023-03-11T06:03:03;0.77;;;0.50;;
19260;SDS011;9764;48.114;11.670;2023-03-11T06:05:31;1.13;;;0.50;;
19260;SDS011;9764;48.114;11.670;2023-03-11T06:07:59;0.50;;;0.50;;
19260;SDS011;9764;48.114;11.670;2023-03-11T06:10:28;0.90;;;0.50;;
19260;SDS011;9764;48.114;11.670;2023-03-11T06:12:56;0.77;;;0.50;;
19260;SDS011;9764;48.114;11.670;2023-03-11T06:15:29;1.25;;;0.52;;
19260;SDS011;9764;48.114;11.670;2023-03-11T06:17:59;0.50;;;0.40;;
19260;SDS011;9764;48.114;11.670;2023-03-11T06:20:28;1.65;;;0.50;;
19260;SDS011;9764;48.114;11.670;2023-03-11T06:22:56;1.60;;;0.50;;
19260;SDS011;9764;48.114;11.670;2023-03-11T06:25:25;1.77;;;0.52;;
19260;SDS011;9764;48.114;11.670;2023-03-11T06:27:53;1.05;;;0.50;;
19260;SDS011;9764;48.114;11.670;2023-03-11T06:30:23;1.77;;;0.50;;
19260;SDS011;9764;48.114;11.670;2023-03-11T06:33:04;4.32;;;0.63;;
19260;SDS011;9764;48.114;11.670;2023-03-11T06:35:32;1.25;;;0.50;;
19260;SDS011;9764;48.114;11.670;2023-03-11T06:38:00;0.57;;;0.57;;
19260;SDS011;9764;48.114;11.670;2023-03-11T06:40:29;5.07;;;0.63;;
19260;SDS011;9764;48.114;11.670;2023-03-11T06:42:57;1.83;;;0.57;;
19260;SDS011;9764;48.114;11.670;2023-03-11T06:45:30;2.08;;;0.60;;
19260;SDS011;9764;48.114;11.670;2023-03-11T06:47:58;0.80;;;0.45;;
19260;SDS011;9764;48.114;11.670;2023-03-11T06:50:29;1.15;;;0.50;;
19260;SDS011;9764;48.114;11.670;2023-03-11T06:53:00;0.40;;;0.40;;
19260;SDS011;9764;48.114;11.670;2023-03-11T06:55:29;2.38;;;0.73;;
19260;SDS011;9764;48.114;11.670;2023-03-11T06:57:58;1.02;;;0.85;;
19260;SDS011;9764;48.114;11.670;2023-03-11T07:00:27;0.50;;;0.50;;
19260;SDS011;9764;48.114;11.670;2023-03-11T07:02:58;0.50;;;0.50;;
19260;SDS011;9764;48.114;11.670;2023-03-11T07:05:26;1.45;;;0.70;;
19260;SDS011;9764;48.114;11.670;2023-03-11T07:08:00;2.28;;;0.60;;
19260;SDS011;9764;48.114;11.670;2023-03-11T07:10:29;1.95;;;0.70;;
19260;SDS011;9764;48.114;11.670;2023-03-11T07:12:57;0.73;;;0.63;;
19260;SDS011;9764;48.114;11.670;2023-03-11T07:15:25;0.40;;;0.40;;
19260;SDS011;9764;48.114;11.670;2023-03-11T07:17:54;0.68;;;0.50;;
19260;SDS011;9764;48.114;11.670;2023-03-11T07:20:22;0.80;;;0.40;;
19260;SDS011;9764;48.114;11.670;2023-03-11T07:22:52;1.95;;;0.57;;
19260;SDS011;9764;48.114;11.670;2023-03-11T07:25:24;0.45;;;0.40;;
19260;SDS011;9764;48.114;11.670;2023-03-11T07:27:52;1.95;;;0.80;;
19260;SDS011;9764;48.114;11.670;2023-03-11T07:30:20;0.60;;;0.50;;
19260;SDS011;9764;48.114;11.670;2023-03-11T07:32:49;0.60;;;0.60;;
19260;SDS011;9764;48.114;11.670;2023-03-11T07:35:17;1.08;;;0.68;;
19260;SDS011;9764;48.114;11.670;2023-03-11T07:37:45;2.00;;;0.50;;
19260;SDS011;9764;48.114;11.670;2023-03-11T07:40:15;0.65;;;0.60;;
19260;SDS011;9764;48.114;11.670;2023-03-11T07:42:44;1.23;;;0.50;;
19260;SDS011;9764;48.114;11.670;2023-03-11T07:45:12;2.28;;;0.60;;
19260;SDS011;9764;48.114;11.670;2023-03-11T07:47:40;0.77;;;0.50;;
19260;SDS011;9764;48.114;11.670;2023-03-11T07:50:09;1.17;;;0.70;;
19260;SDS011;9764;48.114;11.670;2023-03-11T07:52:38;1.02;;;0.65;;
19260;SDS011;9764;48.114;11.670;2023-03-11T07:55:06;0.50;;;0.50;;
19260;SDS011;9764;48.114;11.670;2023-03-11T07:57:37;1.27;;;0.73;;
19260;SDS011;9764;48.114;11.670;2023-03-11T08:00:06;0.57;;;0.45;;
19260;SDS011;9764;48.114;11.670;2023-03-11T08:02:38;2.08;;;0.60;;
19260;SDS011;9764;48.114;11.670;2023-03-11T08:05:06;0.93;;;0.60;;
19260;SDS011;9764;48.114;11.670;2023-03-11T08:07:35;0.60;;;0.60;;
19260;SDS011;9764;48.114;11.670;2023-03-11T08:10:04;0.75;;;0.60;;
19260;SDS011;9764;48.114;11.670;2023-03-11T08:12:33;1.92;;;0.70;;
19260;SDS011;9764;48.114;11.670;2023-03-11T08:15:03;0.95;;;0.60;;
19260;SDS011;9764;48.114;11.670;2023-03-11T08:17:32;1.30;;;0.63;;
19260;SDS011;9764;48.114;11.670;2023-03-11T08:20:00;0.50;;;0.50;;
19260;SDS011;9764;48.114;11.670;2023-03-11T08:22:30;2.63;;;0.70;;
19260;SDS011;9764;48.114;11.670;2023-03-11T08:24:58;2.08;;;0.90;;
19260;SDS011;9764;48.114;11.670;2023-03-11T08:27:27;2.08;;;0.75;;
19260;SDS011;9764;48.114;11.670;2023-03-11T08:29:56;1.23;;;0.60;;
19260;SDS011;9764;48.114;11.670;2023-03-11T08:32:26;1.75;;;0.70;;
19260;SDS011;9764;48.114;11.670;2023-03-11T08:34:57;2.50;;;0.85;;
19260;SDS011;9764;48.114;11.670;2023-03-11T08:37:27;1.38;;;0.70;;
19260;SDS011;9764;48.114;11.670;2023-03-11T08:39:57;1.77;;;0.70;;
19260;SDS011;9764;48.114;11.670;2023-03-11T08:42:25;1.58;;;0.75;;
19260;SDS011;9764;48.114;11.670;2023-03-11T08:44:53;2.90;;;1.10;;
19260;SDS011;9764;48.114;11.670;2023-03-11T08:47:22;1.52;;;0.80;;
19260;SDS011;9764;48.114;11.670;2023-03-11T08:49:51;1.10;;;0.85;;
19260;SDS011;9764;48.114;11.670;2023-03-11T08:52:20;1.38;;;0.90;;
19260;SDS011;9764;48.114;11.670;2023-03-11T08:54:48;2.72;;;0.80;;
19260;SDS011;9764;48.114;11.670;2023-03-11T08:57:16;2.58;;;0.88;;
19260;SDS011;9764;48.114;11.670;2023-03-11T08:59:45;2.03;;;1.02;;
19260;SDS011;9764;48.114;11.670;2023-03-11T09:02:13;1.98;;;1.17;;
19260;SDS011;9764;48.114;11.670;2023-03-11T09:04:41;1.42;;;1.02;;
19260;SDS011;9764;48.114;11.670;2023-03-11T09:07:16;1.20;;;0.75;;
19260;SDS011;9764;48.114;11.670;2023-03-11T09:09:44;1.95;;;0.90;;
19260;SDS011;9764;48.114;11.670;2023-03-11T09:12:13;1.35;;;1.00;;
19260;SDS011;9764;48.114;11.670;2023-03-11T09:14:42;1.77;;;1.00;;
19260;SDS011;9764;48.114;11.670;2023-03-11T09:17:10;2.00;;;1.02;;
19260;SDS011;9764;48.114;11.670;2023-03-11T09:19:39;2.38;;;0.85;;
19260;SDS011;9764;48.114;11.670;2023-03-11T09:22:08;1.20;;;0.90;;
19260;SDS011;9764;48.114;11.670;2023-03-11T09:24:38;1.58;;;0.80;;
19260;SDS011;9764;48.114;11.670;2023-03-11T09:27:06;1.15;;;1.00;;
19260;SDS011;9764;48.114;11.670;2023-03-11T09:29:34;1.90;;;1.10;;
19260;SDS011;9764;48.114;11.670;2023-03-11T09:32:03;1.52;;;1.00;;
19260;SDS011;9764;48.114;11.670;2023-03-11T09:34:32;1.30;;;1.10;;
19260;SDS011;9764;48.114;11.670;2023-03-11T09:37:00;1.63;;;0.93;;
19260;SDS011;9764;48.114;11.670;2023-03-11T09:39:28;1.08;;;0.77;;
19260;SDS011;9764;48.114;11.670;2023-03-11T09:42:00;4.35;;;1.00;;
19260;SDS011;9764;48.114;11.670;2023-03-11T09:44:32;2.22;;;1.00;;
19260;SDS011;9764;48.114;11.670;2023-03-11T09:52:55;1.20;;;0.98;;
19260;SDS011;9764;48.114;11.670;2023-03-11T09:55:41;1.52;;;0.85;;
19260;SDS011;9764;48.114;11.670;2023-03-11T09:58:18;2.05;;;1.02;;
19260;SDS011;9764;48.114;11.670;2023-03-11T10:01:02;2.03;;;0.95;;
19260;SDS011;9764;48.114;11.670;2023-03-11T10:03:41;1.00;;;0.90;;
19260;SDS011;9764;48.114;11.670;2023-03-11T10:06:13;1.67;;;0.80;;
19260;SDS011;9764;48.114;11.670;2023-03-11T10:08:45;1.88;;;1.13;;
19260;SDS011;9764;48.114;11.670;2023-03-11T10:11:24;1.50;;;1.05;;
19260;SDS011;9764;48.114;11.670;2023-03-11T10:14:16;1.92;;;0.90;;
19260;SDS011;9764;48.114;11.670;2023-03-11T10:16:55;1.65;;;0.98;;
19260;SDS011;9764;48.114;11.670;2023-03-11T10:19:33;1.23;;;0.88;;
19260;SDS011;9764;48.114;11.670;2023-03-11T10:22:10;1.30;;;0.90;;
19260;SDS011;9764;48.114;11.670;2023-03-11T10:24:48;1.60;;;0.82;;
19260;SDS011;9764;48.114;11.670;2023-03-11T10:27:25;1.05;;;0.70;;
19260;SDS011;9764;48.114;11.670;2023-03-11T10:29:59;1.13;;;0.90;;
19260;SDS011;9764;48.114;11.670;2023-03-11T10:32:34;1.83;;;0.80;;
19260;SDS011;9764;48.114;11.670;2023-03-11T10:35:14;1.13;;;0.88;;
19260;SDS011;9764;48.114;11.670;2023-03-11T10:37:45;2.22;;;0.80;;
19260;SDS011;9764;48.114;11.670;2023-03-11T10:40:20;2.92;;;1.10;;
19260;SDS011;9764;48.114;11.670;2023-03-11T10:42:53;1.23;;;0.98;;
19260;SDS011;9764;48.114;11.670;2023-03-11T10:45:25;1.08;;;0.98;;
19260;SDS011;9764;48.114;11.670;2023-03-11T10:47:55;1.10;;;0.88;;
19260;SDS011;9764;48.114;11.670;2023-03-11T10:50:24;1.13;;;0.90;;
19260;SDS011;9764;48.114;11.670;2023-03-11T10:53:09;1.55;;;0.90;;
19260;SDS011;9764;48.114;11.670;2023-03-11T10:55:44;1.83;;;0.80;;
19260;SDS011;9764;48.114;11.670;2023-03-11T10:58:14;1.70;;;0.98;;
19260;SDS011;9764;48.114;11.670;2023-03-11T11:00:45;0.70;;;0.70;;
19260;SDS011;9764;48.114;11.670;2023-03-11T11:03:26;1.00;;;0.80;;
19260;SDS011;9764;48.114;11.670;2023-03-11T11:05:59;1.17;;;1.00;;
19260;SDS011;9764;48.114;11.670;2023-03-11T11:08:30;1.08;;;0.93;;
19260;SDS011;9764;48.114;11.670;2023-03-11T11:10:59;1.48;;;0.85;;
19260;SDS011;9764;48.114;11.670;2023-03-11T11:13:29;1.10;;;0.82;;
19260;SDS011;9764;48.114;11.670;2023-03-11T11:16:02;1.60;;;0.90;;
19260;SDS011;9764;48.114;11.670;2023-03-11T11:18:33;1.48;;;0.70;;
19260;SDS011;9764;48.114;11.670;2023-03-11T11:21:04;2.05;;;0.82;;
19260;SDS011;9764;48.114;11.670;2023-03-11T11:23:38;1.63;;;0.77;;
19260;SDS011;9764;48.114;11.670;2023-03-11T11:26:13;1.35;;;0.95;;
19260;SDS011;9764;48.114;11.670;2023-03-11T11:28:44;1.08;;;0.80;;
19260;SDS011;9764;48.114;11.670;2023-03-11T11:31:21;2.80;;;0.90;;
19260;SDS011;9764;48.114;11.670;2023-03-11T11:33:51;2.47;;;0.77;;
19260;SDS011;9764;48.114;11.670;2023-03-11T11:36:21;0.98;;;0.75;;
19260;SDS011;9764;48.114;11.670;2023-03-11T11:38:54;3.25;;;0.80;;
19260;SDS011;9764;48.114;11.670;2023-03-11T11:41:23;0.80;;;0.70;;
19260;SDS011;9764;48.114;11.670;2023-03-11T11:43:56;1.13;;;0.80;;
19260;SDS011;9764;48.114;11.670;2023-03-11T11:46:29;1.33;;;0.82;;
19260;SDS011;9764;48.114;11.670;2023-03-11T11:49:05;1.95;;;0.80;;
19260;SDS011;9764;48.114;11.670;2023-03-11T11:51:43;0.70;;;0.60;;
19260;SDS011;9764;48.114;11.670;2023-03-11T11:54:16;0.80;;;0.60;;
19260;SDS011;9764;48.114;11.670;2023-03-11T11:56:49;0.98;;;0.88;;
19260;SDS011;9764;48.114;11.670;2023-03-11T11:59:20;1.10;;;0.90;;
19260;SDS011;9764;48.114;11.670;2023-03-11T12:01:57;0.70;;;0.70;;
19260;SDS011;9764;48.114;11.670;2023-03-11T12:04:37;1.08;;;0.75;;
19260;SDS011;9764;48.114;11.670;2023-03-11T12:07:17;0.82;;;0.82;;
19260;SDS011;9764;48.114;11.670;2023-03-11T12:10:17;1.20;;;0.73;;
19260;SDS011;9764;48.114;11.670;2023-03-11T12:12:58;2.25;;;0.85;;
19260;SDS011;9764;48.114;11.670;2023-03-11T12:15:55;0.90;;;0.73;;
19260;SDS011;9764;48.114;11.670;2023-03-11T12:18:31;0.68;;;0.68;;
19260;SDS011;9764;48.114;11.670;2023-03-11T12:21:07;0.70;;;0.70;;
19260;SDS011;9764;48.114;11.670;2023-03-11T12:23:45;1.95;;;1.00;;
19260;SDS011;9764;48.114;11.670;2023-03-11T12:26:25;1.98;;;0.60;;
19260;SDS011;9764;48.114;11.670;2023-03-11T12:28:59;0.85;;;0.70;;
19260;SDS011;9764;48.114;11.670;2023-03-11T12:31:34;0.82;;;0.70;;
19260;SDS011;9764;48.114;11.670;2023-03-11T12:34:08;0.88;;;0.60;;
19260;SDS011;9764;48.114;11.670;2023-03-11T12:36:39;0.60;;;0.52;;
19260;SDS011;9764;48.114;11.670;2023-03-11T12:39:18;1.15;;;0.63;;
19260;SDS011;9764;48.114;11.670;2023-03-11T12:42:00;0.90;;;0.63;;
19260;SDS011;9764;48.114;11.670;2023-03-11T12:44:43;1.05;;;0.80;;
19260;SDS011;9764;48.114;11.670;2023-03-11T12:47:21;1.10;;;0.80;;
19260;SDS011;9764;48.114;11.670;2023-03-11T12:49:53;0.80;;;0.60;;
19260;SDS011;9764;48.114;11.670;2023-03-11T12:52:24;2.58;;;0.80;;
19260;SDS011;9764;48.114;11.670;2023-03-11T12:58:29;1.35;;;0.70;;
19260;SDS011;9764;48.114;11.670;2023-03-11T13:01:16;1.95;;;0.80;;
19260;SDS011;9764;48.114;11.670;2023-03-11T13:04:03;1.00;;;0.70;;
19260;SDS011;9764;48.114;11.670;2023-03-11T13:06:59;1.13;;;0.85;;
19260;SDS011;9764;48.114;11.670;2023-03-11T13:09:58;0.85;;;0.50;;
19260;SDS011;9764;48.114;11.670;2023-03-11T13:12:38;0.50;;;0.50;;
19260;SDS011;9764;48.114;11.670;2023-03-11T13:15:18;0.52;;;0.50;;
19260;SDS011;9764;48.114;11.670;2023-03-11T13:18:11;0.85;;;0.68;;
19260;SDS011;9764;48.114;11.670;2023-03-11T13:20:46;0.50;;;0.50;;
19260;SDS011;9764;48.114;11.670;2023-03-11T13:23:26;0.50;;;0.50;;
19260;SDS011;9764;48.114;11.670;2023-03-11T13:26:03;1.02;;;0.63;;
19260;SDS011;9764;48.114;11.670;2023-03-11T13:28:46;0.50;;;0.50;;
19260;SDS011;9764;48.114;11.670;2023-03-11T13:31:37;1.52;;;0.80;;
19260;SDS011;9764;48.114;11.670;2023-03-11T13:34:14;0.70;;;0.70;;
19260;SDS011;9764;48.114;11.670;2023-03-11T13:36:54;0.80;;;0.68;;
19260;SDS011;9764;48.114;11.670;2023-03-11T13:39:44;0.68;;;0.60;;
19260;SDS011;9764;48.114;11.670;2023-03-11T13:42:25;0.60;;;0.60;;
19260;SDS011;9764;48.114;11.670;2023-03-11T13:44:58;0.63;;;0.63;;
19260;SDS011;9764;48.114;11.670;2023-03-11T13:47:27;1.40;;;0.88;;
19260;SDS011;9764;48.114;11.670;2023-03-11T13:49:58;0.60;;;0.55;;
19260;SDS011;9764;48.114;11.670;2023-03-11T13:52:30;0.95;;;0.63;;
19260;SDS011;9764;48.114;11.670;2023-03-11T13:55:02;1.45;;;0.50;;
19260;SDS011;9764;48.114;11.670;2023-03-11T13:57:33;0.50;;;0.50;;
19260;SDS011;9764;48.114;11.670;2023-03-11T14:00:04;2.80;;;0.60;;
19260;SDS011;9764;48.114;11.670;2023-03-11T14:02:44;0.93;;;0.60;;
19260;SDS011;9764;48.114;11.670;2023-03-11T14:05:16;0.95;;;0.70;;
19260;SDS011;9764;48.114;11.670;2023-03-11T14:07:47;0.57;;;0.50;;
19260;SDS011;9764;48.114;11.670;2023-03-11T14:10:24;0.75;;;0.52;;
19260;SDS011;9764;48.114;11.670;2023-03-11T14:13:04;0.82;;;0.60;;
19260;SDS011;9764;48.114;11.670;2023-03-11T14:15:45;0.70;;;0.50;;
19260;SDS011;9764;48.114;11.670;2023-03-11T14:18:26;0.90;;;0.60;;
19260;SDS011;9764;48.114;11.670;2023-03-11T14:20:56;0.50;;;0.50;;
19260;SDS011;9764;48.114;11.670;2023-03-11T14:23:27;0.90;;;0.60;;
19260;SDS011;9764;48.114;11.670;2023-03-11T14:26:04;0.95;;;0.50;;
19260;SDS011;9764;48.114;11.670;2023-03-11T14:28:35;0.63;;;0.60;;
19260;SDS011;9764;48.114;11.670;2023-03-11T14:31:06;0.77;;;0.50;;
19260;SDS011;9764;48.114;11.670;2023-03-11T14:33:53;1.65;;;0.50;;
19260;SDS011;9764;48.114;11.670;2023-03-11T14:36:22;0.52;;;0.50;;
19260;SDS011;9764;48.114;11.670;2023-03-11T14:38:51;1.90;;;0.88;;
19260;SDS011;9764;48.114;11.670;2023-03-11T14:41:20;0.88;;;0.50;;
19260;SDS011;9764;48.114;11.670;2023-03-11T14:43:49;0.60;;;0.60;;
19260;SDS011;9764;48.114;11.670;2023-03-11T14:46:21;1.15;;;0.70;;
19260;SDS011;9764;48.114;11.670;2023-03-11T14:48:53;1.05;;;0.50;;
19260;SDS011;9764;48.114;11.670;2023-03-11T14:51:24;0.93;;;0.65;;
19260;SDS011;9764;48.114;11.670;2023-03-11T14:54:02;1.70;;;0.75;;
19260;SDS011;9764;48.114;11.670;2023-03-11T14:56:37;1.60;;;0.63;;
19260;SDS011;9764;48.114;11.670;2023-03-11T14:59:09;0.88;;;0.60;;
19260;SDS011;9764;48.114;11.670;2023-03-11T15:01:42;0.60;;;0.60;;
19260;SDS011;9764;48.114;11.670;2023-03-11T15:04:12;1.17;;;0.68;;
19260;SDS011;9764;48.114;11.670;2023-03-11T15:06:49;0.63;;;0.60;;
19260;SDS011;9764;48.114;11.670;2023-03-11T15:09:18;0.98;;;0.50;;
19260;SDS011;9764;48.114;11.670;2023-03-11T15:11:50;0.63;;;0.63;;
19260;SDS011;9764;48.114;11.670;2023-03-11T15:14:21;1.10;;;0.60;;
19260;SDS011;9764;48.114;11.670;2023-03-11T15:16:51;0.57;;;0.50;;
19260;SDS011;9764;48.114;11.670;2023-03-11T15:19:29;1.27;;;0.70;;
19260;SDS011;9764;48.114;11.670;2023-03-11T15:22:03;0.90;;;0.57;;
19260;SDS011;9764;48.114;11.670;2023-03-11T15:24:48;0.50;;;0.50;;
19260;SDS011;9764;48.114;11.670;2023-03-11T15:27:22;0.75;;;0.60;;
19260;SDS011;9764;48.114;11.670;2023-03-11T15:29:55;1.25;;;0.80;;
19260;SDS011;9764;48.114;11.670;2023-03-11T15:32:34;1.08;;;0.70;;